Time;durP1;ratioP1;P1;durP2;ratioP2;P2;SDS_P1;SDS_P2;PMS_P1;PMS_P2;Temp;Humidity;BMP_temperature;BMP_pressure;BME280_temperature;BME280_humidity;BME280_pressure;Samples;Min_cycle;Max_cycle;Signal;HPM_P1;HPM_P2
2022/04/22 00:02:56;;;;;;;9.20;7.87;;;;;;;;;;4986254;28;20182;-88
2022/04/22 00:06:01;;;;;;;11.93;8.20;;;;;;;;;;4974653;28;20637;-89
2022/04/22 00:09:05;;;;;;;14.83;7.83;;;;;;;;;;4985349;28;20178;-89
2022/04/22 00:12:10;;;;;;;12.60;8.80;;;;;;;;;;4996263;28;20218;-89
2022/04/22 00:15:14;;;;;;;11.43;8.30;;;;;;;;;;4987779;28;20182;-87
2022/04/22 00:18:18;;;;;;;10.40;7.77;;;;;;;;;;4974839;28;20218;-89
2022/04/22 00:21:22;;;;;;;9.50;7.90;;;;;;;;;;4984490;28;20174;-90
2022/04/22 00:24:26;;;;;;;12.30;8.73;;;;;;;;;;4984768;28;20178;-88
2022/04/22 00:27:31;;;;;;;11.83;9.13;;;;;;;;;;4986846;28;20229;-87
2022/04/22 00:30:35;;;;;;;10.83;8.83;;;;;;;;;;4976590;28;20178;-87
2022/04/22 00:33:39;;;;;;;11.30;8.67;;;;;;;;;;4973633;28;20519;-89
2022/04/22 00:36:43;;;;;;;11.20;9.03;;;;;;;;;;4984706;28;20214;-89
2022/04/22 00:39:48;;;;;;;13.03;8.10;;;;;;;;;;4986784;28;20194;-88
2022/04/22 00:42:52;;;;;;;13.00;9.20;;;;;;;;;;4986503;28;20206;-87
2022/04/22 00:45:57;;;;;;;12.13;8.73;;;;;;;;;;4984835;28;20174;-89
2022/04/22 00:49:01;;;;;;;11.77;9.00;;;;;;;;;;4973474;28;20179;-87
2022/04/22 00:52:06;;;;;;;13.37;9.70;;;;;;;;;;4983822;28;20217;-87
2022/04/22 00:55:10;;;;;;;14.23;9.20;;;;;;;;;;4984290;28;20542;-89
2022/04/22 00:58:15;;;;;;;12.63;9.43;;;;;;;;;;4996732;28;20689;-89
2022/04/22 01:01:19;;;;;;;13.53;9.23;;;;;;;;;;4973107;28;20182;-89
2022/04/22 01:11:17;;;;;;;13.37;10.27;;;;;;;;;;4987544;28;20178;-87
2022/04/22 01:14:21;;;;;;;12.17;10.10;;;;;;;;;;4973453;28;20183;-87
2022/04/22 01:17:26;;;;;;;15.10;10.30;;;;;;;;;;4972561;28;20210;-89
2022/04/22 01:20:30;;;;;;;15.13;10.83;;;;;;;;;;4986131;28;20178;-87
2022/04/22 01:23:34;;;;;;;17.50;11.90;;;;;;;;;;4983566;28;20186;-87
2022/04/22 01:26:39;;;;;;;15.63;11.37;;;;;;;;;;4972648;28;20234;-89
2022/04/22 01:29:43;;;;;;;17.13;12.37;;;;;;;;;;4984246;28;20182;-87
2022/04/22 01:32:50;;;;;;;13.53;10.97;;;;;;;;;;4986554;28;20210;-89
2022/04/22 01:35:54;;;;;;;14.67;11.50;;;;;;;;;;4986329;28;20182;-89
2022/04/22 01:38:58;;;;;;;16.90;12.30;;;;;;;;;;4974162;28;20198;-87
2022/04/22 01:42:04;;;;;;;16.03;12.17;;;;;;;;;;4986120;28;20182;-87
2022/04/22 01:45:09;;;;;;;17.73;12.87;;;;;;;;;;4997587;28;20178;-87
2022/04/22 01:48:14;;;;;;;17.10;12.00;;;;;;;;;;4973343;28;20218;-89
2022/04/22 01:51:18;;;;;;;16.10;11.87;;;;;;;;;;4984285;28;20637;-87
2022/04/22 01:54:22;;;;;;;17.60;12.67;;;;;;;;;;4983593;28;20641;-87
2022/04/22 01:57:26;;;;;;;17.57;12.37;;;;;;;;;;4983373;28;20218;-87
2022/04/22 02:00:30;;;;;;;19.10;13.53;;;;;;;;;;4972509;28;20516;-87
2022/04/22 02:03:35;;;;;;;16.47;12.70;;;;;;;;;;4971831;28;20622;-88
2022/04/22 02:06:39;;;;;;;17.33;12.97;;;;;;;;;;4982764;28;20217;-87
2022/04/22 02:09:44;;;;;;;18.23;13.87;;;;;;;;;;4983160;28;20182;-87
2022/04/22 02:12:49;;;;;;;17.00;13.33;;;;;;;;;;4982684;28;20205;-87
2022/04/22 02:15:53;;;;;;;20.47;14.83;;;;;;;;;;4982720;28;20190;-87
2022/04/22 02:18:58;;;;;;;19.43;14.37;;;;;;;;;;4983035;28;20186;-87
2022/04/22 02:22:02;;;;;;;15.93;12.50;;;;;;;;;;4971587;28;20182;-87
2022/04/22 02:25:08;;;;;;;17.77;13.10;;;;;;;;;;4971571;28;20178;-87
2022/04/22 02:31:34;;;;;;;21.57;14.97;;;;;;;;;;4982659;28;20183;-87
2022/04/22 02:34:38;;;;;;;19.50;15.10;;;;;;;;;;4971494;28;20194;-87
2022/04/22 02:37:42;;;;;;;20.43;15.07;;;;;;;;;;4982058;28;20708;-87
2022/04/22 02:47:32;;;;;;;19.50;14.40;;;;;;;;;;4986077;28;20217;-88
2022/04/22 02:50:36;;;;;;;19.17;14.83;;;;;;;;;;4975333;28;20519;-87
2022/04/22 02:53:40;;;;;;;21.30;15.47;;;;;;;;;;4986429;28;20205;-87
2022/04/22 02:56:44;;;;;;;19.63;15.40;;;;;;;;;;4986227;28;20222;-87
2022/04/22 02:59:49;;;;;;;21.60;16.20;;;;;;;;;;4986500;28;20508;-87
2022/04/22 03:02:53;;;;;;;22.63;15.97;;;;;;;;;;4986061;28;20198;-87
2022/04/22 03:05:58;;;;;;;18.87;15.10;;;;;;;;;;4985846;28;20206;-86
2022/04/22 03:09:03;;;;;;;22.23;16.10;;;;;;;;;;4985968;28;20182;-87
2022/04/22 03:12:08;;;;;;;21.77;16.20;;;;;;;;;;4985875;28;20182;-87
2022/04/22 03:15:14;;;;;;;21.53;16.43;;;;;;;;;;4986077;28;20182;-87
2022/04/22 03:18:19;;;;;;;20.17;16.43;;;;;;;;;;4974559;28;20218;-87
2022/04/22 03:21:23;;;;;;;21.33;15.37;;;;;;;;;;4985993;28;20630;-87
2022/04/22 03:24:27;;;;;;;25.90;17.87;;;;;;;;;;4985697;28;20183;-87
2022/04/22 03:27:31;;;;;;;21.10;16.73;;;;;;;;;;4974821;28;20221;-89
2022/04/22 03:30:37;;;;;;;23.00;16.23;;;;;;;;;;4985579;28;20182;-89
2022/04/22 03:33:41;;;;;;;21.57;16.43;;;;;;;;;;4996685;28;20550;-89
2022/04/22 03:36:45;;;;;;;23.53;17.43;;;;;;;;;;4985361;28;20213;-89
2022/04/22 03:39:49;;;;;;;23.17;17.83;;;;;;;;;;4985084;28;20201;-89
2022/04/22 03:42:54;;;;;;;22.97;17.60;;;;;;;;;;4985484;28;20178;-89
2022/04/22 03:45:58;;;;;;;27.93;18.03;;;;;;;;;;4986121;28;20178;-89
2022/04/22 03:49:04;;;;;;;22.47;16.60;;;;;;;;;;4988473;28;20186;-87
2022/04/22 03:52:09;;;;;;;24.30;16.60;;;;;;;;;;4986249;28;20178;-89
2022/04/22 03:55:13;;;;;;;22.73;16.83;;;;;;;;;;4984668;28;20194;-89
2022/04/22 03:58:17;;;;;;;21.77;15.70;;;;;;;;;;4974134;28;20218;-89
2022/04/22 04:01:21;;;;;;;20.87;15.87;;;;;;;;;;4985460;28;20186;-87
2022/04/22 04:04:25;;;;;;;23.70;17.47;;;;;;;;;;4985362;28;20186;-89
2022/04/22 04:07:29;;;;;;;24.03;16.60;;;;;;;;;;4985638;28;20217;-89
2022/04/22 04:17:03;;;;;;;23.00;17.30;;;;;;;;;;4985016;28;20562;-89
2022/04/22 04:23:30;;;;;;;24.70;16.97;;;;;;;;;;4985863;28;20546;-87
2022/04/22 04:26:35;;;;;;;24.03;16.57;;;;;;;;;;4984621;28;20222;-87
2022/04/22 04:29:39;;;;;;;25.03;17.27;;;;;;;;;;4974821;28;20178;-87
2022/04/22 04:32:44;;;;;;;22.23;16.17;;;;;;;;;;4974110;28;20597;-87
2022/04/22 04:35:48;;;;;;;25.50;17.63;;;;;;;;;;4984893;28;20182;-87
2022/04/22 04:38:53;;;;;;;30.27;18.53;;;;;;;;;;4973398;28;20178;-88
2022/04/22 04:41:57;;;;;;;25.47;17.13;;;;;;;;;;4984588;28;20183;-87
2022/04/22 04:45:02;;;;;;;23.77;17.73;;;;;;;;;;4988010;28;20538;-88
2022/04/22 04:48:07;;;;;;;24.80;17.90;;;;;;;;;;4973128;28;20563;-87
2022/04/22 04:51:11;;;;;;;22.97;17.30;;;;;;;;;;4975872;28;20186;-89
2022/04/22 04:54:15;;;;;;;22.77;16.83;;;;;;;;;;4984249;28;20601;-88
2022/04/22 04:57:20;;;;;;;23.33;17.10;;;;;;;;;;4973087;28;20221;-89
2022/04/22 05:00:24;;;;;;;22.30;16.53;;;;;;;;;;4984693;28;20182;-87
2022/04/22 05:03:28;;;;;;;24.57;16.90;;;;;;;;;;4984866;28;20175;-88
2022/04/22 05:06:33;;;;;;;27.40;17.60;;;;;;;;;;4971830;28;20222;-88
2022/04/22 05:09:37;;;;;;;26.57;19.33;;;;;;;;;;4983796;28;20202;-89
2022/04/22 05:12:41;;;;;;;26.17;18.57;;;;;;;;;;4984098;28;20193;-87
2022/04/22 05:15:47;;;;;;;24.40;17.20;;;;;;;;;;4973489;28;20202;-88
2022/04/22 05:18:51;;;;;;;24.43;17.27;;;;;;;;;;4983920;28;20187;-87
2022/04/22 05:21:57;;;;;;;33.37;19.20;;;;;;;;;;4983825;28;20182;-87
2022/04/22 05:25:02;;;;;;;22.73;16.50;;;;;;;;;;4983981;28;20178;-86
2022/04/22 05:28:06;;;;;;;24.00;16.90;;;;;;;;;;4976261;28;20225;-86
2022/04/22 05:34:33;;;;;;;22.60;16.33;;;;;;;;;;4983657;28;20214;-89
2022/04/22 05:37:55;;;;;;;26.83;16.27;;;;;;;;;;4975813;28;20217;-87
2022/04/22 05:41:00;;;;;;;22.87;16.93;;;;;;;;;;4983564;28;20190;-87
2022/04/22 05:44:04;;;;;;;23.87;16.87;;;;;;;;;;4983731;28;20178;-88
2022/04/22 05:47:09;;;;;;;28.03;16.60;;;;;;;;;;4986369;28;20222;-86
2022/04/22 05:50:15;;;;;;;19.80;15.00;;;;;;;;;;4986886;28;20626;-88
2022/04/22 05:53:19;;;;;;;21.33;15.90;;;;;;;;;;4994324;28;20209;-86
2022/04/22 05:56:24;;;;;;;20.90;15.43;;;;;;;;;;4983454;28;20641;-86
2022/04/22 05:59:28;;;;;;;21.00;16.23;;;;;;;;;;4983309;28;20178;-89
2022/04/22 06:02:32;;;;;;;21.10;15.63;;;;;;;;;;4984104;28;20182;-88
2022/04/22 06:05:37;;;;;;;22.67;16.80;;;;;;;;;;4983154;28;20182;-89
2022/04/22 06:12:03;;;;;;;21.43;14.77;;;;;;;;;;4982635;28;20182;-88
2022/04/22 06:15:08;;;;;;;23.97;15.97;;;;;;;;;;4982683;28;20554;-88
2022/04/22 06:18:12;;;;;;;22.30;14.90;;;;;;;;;;4982338;28;20221;-89
2022/04/22 06:21:20;;;;;;;21.63;14.33;;;;;;;;;;4985084;28;20178;-88
2022/04/22 06:24:23;;;;;;;18.67;14.00;;;;;;;;;;4982936;28;20181;-86
2022/04/22 06:27:47;;;;;;;18.73;13.80;;;;;;;;;;4983165;28;20233;-88
2022/04/22 06:30:52;;;;;;;20.97;13.40;;;;;;;;;;4983333;28;20198;-88
2022/04/22 06:33:56;;;;;;;19.63;14.47;;;;;;;;;;4983579;28;20206;-86
2022/04/22 06:37:02;;;;;;;20.17;13.57;;;;;;;;;;4982301;28;20214;-88
2022/04/22 06:46:54;;;;;;;14.80;12.37;;;;;;;;;;4993405;28;20226;-85
2022/04/22 06:49:59;;;;;;;16.43;13.40;;;;;;;;;;4971620;28;20182;-86
2022/04/22 06:53:03;;;;;;;17.57;13.33;;;;;;;;;;4971491;28;20202;-86
2022/04/22 06:56:08;;;;;;;20.10;12.63;;;;;;;;;;4987323;28;20186;-85
2022/04/22 06:59:12;;;;;;;18.60;12.00;;;;;;;;;;4979178;28;20162;-86
2022/04/22 07:02:17;;;;;;;15.63;12.37;;;;;;;;;;5006362;28;20654;-88
2022/04/22 07:05:22;;;;;;;14.43;11.60;;;;;;;;;;4985838;28;20182;-85
2022/04/22 07:08:26;;;;;;;16.03;12.17;;;;;;;;;;4993436;28;20225;-88
2022/04/22 07:11:32;;;;;;;14.27;10.93;;;;;;;;;;4971123;28;20197;-87
2022/04/22 07:14:39;;;;;;;17.60;12.10;;;;;;;;;;4993565;28;20219;-89
2022/04/22 07:17:43;;;;;;;15.87;11.03;;;;;;;;;;4974606;28;20222;-89
2022/04/22 07:20:47;;;;;;;14.30;11.80;;;;;;;;;;4970767;28;20194;-88
2022/04/22 07:23:54;;;;;;;19.70;12.50;;;;;;;;;;4982760;28;20562;-86
2022/04/22 07:26:59;;;;;;;14.50;11.27;;;;;;;;;;4970696;28;20240;-88
2022/04/22 07:30:06;;;;;;;15.87;12.27;;;;;;;;;;4976886;28;20552;-85
2022/04/22 07:33:11;;;;;;;14.13;11.00;;;;;;;;;;4987475;28;20209;-85
2022/04/22 07:36:15;;;;;;;13.30;11.27;;;;;;;;;;4974450;28;20185;-88
2022/04/22 07:39:19;;;;;;;14.20;10.77;;;;;;;;;;4978203;28;20680;-88
2022/04/22 07:42:23;;;;;;;17.63;10.33;;;;;;;;;;4974612;28;20178;-86
2022/04/22 07:48:50;;;;;;;14.43;9.90;;;;;;;;;;4997607;28;20186;-85
2022/04/22 07:51:54;;;;;;;15.73;10.33;;;;;;;;;;4987091;28;20178;-86
2022/04/22 07:54:58;;;;;;;12.00;9.83;;;;;;;;;;4996641;28;20560;-87
2022/04/22 07:58:02;;;;;;;10.90;9.17;;;;;;;;;;4987925;28;20549;-86
2022/04/22 08:01:06;;;;;;;12.20;9.33;;;;;;;;;;4985599;28;20185;-88
2022/04/22 08:04:11;;;;;;;10.93;9.13;;;;;;;;;;4985009;28;20200;-88
2022/04/22 08:07:16;;;;;;;11.60;9.20;;;;;;;;;;4973890;28;20222;-89
2022/04/22 08:10:21;;;;;;;12.73;9.57;;;;;;;;;;4985658;28;20182;-86
2022/04/22 08:13:26;;;;;;;12.80;9.07;;;;;;;;;;4985766;28;20178;-87
2022/04/22 08:16:31;;;;;;;11.33;9.40;;;;;;;;;;4977767;28;20206;-87
2022/04/22 08:19:35;;;;;;;11.73;8.97;;;;;;;;;;4985438;28;20179;-87
2022/04/22 08:22:39;;;;;;;13.20;9.83;;;;;;;;;;4987315;28;20182;-88
2022/04/22 08:25:44;;;;;;;11.57;9.50;;;;;;;;;;4985131;28;20178;-88
2022/04/22 08:28:48;;;;;;;13.63;10.83;;;;;;;;;;4984748;28;20178;-88
2022/04/22 08:31:53;;;;;;;11.07;8.73;;;;;;;;;;4984799;28;20658;-88
2022/04/22 08:34:57;;;;;;;16.93;9.70;;;;;;;;;;4984495;28;20206;-88
2022/04/22 08:38:03;;;;;;;12.07;9.97;;;;;;;;;;4974431;28;20222;-86
2022/04/22 08:41:09;;;;;;;25.83;9.20;;;;;;;;;;4972898;28;20186;-90
2022/04/22 08:44:14;;;;;;;10.43;8.53;;;;;;;;;;4984265;28;20179;-87
2022/04/22 08:50:42;;;;;;;9.00;7.90;;;;;;;;;;4997983;28;20183;-88
2022/04/22 08:53:49;;;;;;;11.60;8.43;;;;;;;;;;4986845;28;20526;-87
2022/04/22 08:56:57;;;;;;;11.00;7.63;;;;;;;;;;4986256;28;20222;-86
2022/04/22 09:00:04;;;;;;;10.00;8.17;;;;;;;;;;4997750;28;20174;-87
2022/04/22 09:03:09;;;;;;;9.30;8.00;;;;;;;;;;4984144;28;20186;-88
2022/04/22 09:06:14;;;;;;;9.50;7.27;;;;;;;;;;4989526;28;20511;-87
2022/04/22 09:09:19;;;;;;;10.60;8.00;;;;;;;;;;4983858;28;20526;-87
2022/04/22 09:12:25;;;;;;;11.83;7.80;;;;;;;;;;4988123;28;20630;-86
2022/04/22 09:15:34;;;;;;;9.97;7.90;;;;;;;;;;4996583;28;20214;-88
2022/04/22 09:18:39;;;;;;;9.10;7.90;;;;;;;;;;4972584;28;20183;-87
2022/04/22 09:21:56;;;;;;;9.33;8.00;;;;;;;;;;4983546;28;20178;-87
2022/04/22 09:25:02;;;;;;;10.77;8.50;;;;;;;;;;4978377;28;20236;-87
2022/04/22 09:28:07;;;;;;;10.90;7.47;;;;;;;;;;5004006;23;20242;-89
2022/04/22 09:31:12;;;;;;;9.87;7.60;;;;;;;;;;4963787;28;20179;-89
2022/04/22 09:34:33;;;;;;;10.63;9.00;;;;;;;;;;4985271;28;20227;-89
2022/04/22 09:44:41;;;;;;;10.17;8.83;;;;;;;;;;4974380;28;20195;-88
2022/04/22 09:47:59;;;;;;;9.13;8.23;;;;;;;;;;4985494;28;20230;-89
2022/04/22 09:51:03;;;;;;;9.33;7.97;;;;;;;;;;4974656;28;20183;-90
2022/04/22 09:54:10;;;;;;;13.27;8.70;;;;;;;;;;4985113;28;20199;-90
2022/04/22 09:57:14;;;;;;;9.70;8.30;;;;;;;;;;4974482;28;20222;-90
2022/04/22 10:00:23;;;;;;;9.60;8.20;;;;;;;;;;4985593;28;20178;-90
2022/04/22 10:03:29;;;;;;;10.40;8.30;;;;;;;;;;4974305;28;20179;-89
2022/04/22 10:06:33;;;;;;;10.43;9.07;;;;;;;;;;4974150;28;20179;-90
2022/04/22 10:09:39;;;;;;;10.87;8.87;;;;;;;;;;4963138;28;20187;-90
2022/04/22 10:12:43;;;;;;;9.33;7.97;;;;;;;;;;4974456;28;20519;-90
2022/04/22 10:15:48;;;;;;;9.30;8.00;;;;;;;;;;4974604;28;20226;-90
2022/04/22 10:18:53;;;;;;;10.23;8.90;;;;;;;;;;4985128;28;20215;-90
2022/04/22 10:21:59;;;;;;;10.80;8.07;;;;;;;;;;4985205;28;20183;-90
2022/04/22 10:25:06;;;;;;;10.07;8.10;;;;;;;;;;4985410;28;20175;-90
2022/04/22 10:28:12;;;;;;;11.70;8.40;;;;;;;;;;4967689;28;20227;-90
2022/04/22 10:31:16;;;;;;;9.43;8.30;;;;;;;;;;4973875;28;20202;-90
2022/04/22 10:34:20;;;;;;;9.70;8.47;;;;;;;;;;4985135;28;20646;-89
2022/04/22 10:37:26;;;;;;;9.27;8.27;;;;;;;;;;4985257;28;20218;-90
2022/04/22 10:40:30;;;;;;;8.97;8.07;;;;;;;;;;4954834;29;20184;-90
2022/04/22 10:43:34;;;;;;;12.80;9.27;;;;;;;;;;4954590;29;20179;-90
2022/04/22 10:50:29;;;;;;;13.23;8.77;;;;;;;;;;4984703;28;20535;-90
2022/04/22 10:53:43;;;;;;;8.93;8.03;;;;;;;;;;4962750;28;20183;-89
2022/04/22 10:56:47;;;;;;;9.20;8.27;;;;;;;;;;4965611;28;20175;-89
2022/04/22 11:00:09;;;;;;;13.83;8.17;;;;;;;;;;4980387;28;20238;-89
2022/04/22 11:03:38;;;;;;;11.20;7.87;;;;;;;;;;4943753;29;20188;-89
2022/04/22 11:06:42;;;;;;;9.53;8.43;;;;;;;;;;4947308;29;20187;-89
2022/04/22 11:09:46;;;;;;;11.67;9.47;;;;;;;;;;4939357;28;20520;-89
2022/04/22 11:12:58;;;;;;;10.57;8.57;;;;;;;;;;4950184;29;20184;-90
2022/04/22 11:16:16;;;;;;;11.07;8.40;;;;;;;;;;4958514;29;20552;-90
2022/04/22 11:19:20;;;;;;;9.43;8.30;;;;;;;;;;4960937;28;20631;-90
2022/04/22 11:22:54;;;;;;;9.83;7.73;;;;;;;;;;4939765;29;20188;-90
2022/04/22 11:25:58;;;;;;;11.20;7.63;;;;;;;;;;4980093;28;20183;-89
2022/04/22 11:29:07;;;;;;;9.53;8.53;;;;;;;;;;4957622;29;20207;-90
2022/04/22 11:32:18;;;;;;;11.30;8.90;;;;;;;;;;4957722;29;20642;-89
2022/04/22 11:35:27;;;;;;;10.17;8.33;;;;;;;;;;4949799;29;20219;-89
2022/04/22 11:38:32;;;;;;;8.70;7.67;;;;;;;;;;4938894;29;20220;-90
2022/04/22 11:42:00;;;;;;;11.97;7.93;;;;;;;;;;4938945;29;20177;-90
2022/04/22 11:45:09;;;;;;;10.37;7.50;;;;;;;;;;4954319;28;20199;-90
2022/04/22 11:48:17;;;;;;;9.30;8.30;;;;;;;;;;4957871;28;20223;-90
2022/04/22 11:51:21;;;;;;;14.07;8.00;;;;;;;;;;4968667;28;20184;-90
2022/04/22 11:54:26;;;;;;;25.77;7.97;;;;;;;;;;4957493;29;20528;-88
2022/04/22 11:57:37;;;;;;;13.40;7.97;;;;;;;;;;4968476;28;20215;-84
2022/04/22 12:10:58;;;;;;;15.27;6.73;;;;;;;;;;4946506;29;20187;-84
2022/04/22 12:14:03;;;;;;;9.97;6.40;;;;;;;;;;4968158;28;20195;-85
2022/04/22 12:17:07;;;;;;;9.07;7.40;;;;;;;;;;4956148;28;20231;-85
2022/04/22 12:20:12;;;;;;;9.87;6.73;;;;;;;;;;4957380;29;20187;-85
2022/04/22 12:23:17;;;;;;;8.33;7.13;;;;;;;;;;4957464;29;20179;-82
2022/04/22 12:26:23;;;;;;;10.53;7.47;;;;;;;;;;4969022;28;20195;-82
2022/04/22 12:29:27;;;;;;;9.87;7.33;;;;;;;;;;4957715;29;20203;-82
2022/04/22 12:32:32;;;;;;;9.57;6.93;;;;;;;;;;4957598;29;20184;-83
2022/04/22 12:35:38;;;;;;;10.90;8.30;;;;;;;;;;4968253;28;20215;-82
2022/04/22 12:38:42;;;;;;;11.10;7.63;;;;;;;;;;4958840;29;20215;-87
2022/04/22 12:41:46;;;;;;;6.80;6.20;;;;;;;;;;4957032;29;20179;-83
2022/04/22 12:52:12;;;;;;;9.33;7.77;;;;;;;;;;4949291;29;20191;-88
2022/04/22 12:55:17;;;;;;;8.50;7.57;;;;;;;;;;4968942;28;20220;-87
2022/04/22 12:58:21;;;;;;;8.20;7.13;;;;;;;;;;4957932;29;20227;-85
2022/04/22 13:01:39;;;;;;;8.80;7.83;;;;;;;;;;4939611;29;20636;-86
2022/04/22 13:04:59;;;;;;;10.60;7.93;;;;;;;;;;4941308;29;20181;-86
2022/04/22 13:08:10;;;;;;;9.00;8.10;;;;;;;;;;4952016;29;20216;-86
2022/04/22 13:11:14;;;;;;;7.73;6.90;;;;;;;;;;4959575;29;20199;-85
2022/04/22 13:14:18;;;;;;;8.17;7.37;;;;;;;;;;4957976;29;20176;-85
2022/04/22 13:17:26;;;;;;;9.40;8.40;;;;;;;;;;4946519;28;20231;-85
2022/04/22 13:20:30;;;;;;;9.50;7.63;;;;;;;;;;4948711;29;20183;-86
2022/04/22 13:23:36;;;;;;;8.30;7.10;;;;;;;;;;4959665;29;20179;-85
2022/04/22 13:26:40;;;;;;;9.10;6.63;;;;;;;;;;4958795;29;20180;-86
2022/04/22 13:29:44;;;;;;;9.60;7.27;;;;;;;;;;4959063;29;20187;-86
2022/04/22 13:32:49;;;;;;;8.07;6.87;;;;;;;;;;4959825;29;20199;-86
2022/04/22 13:35:53;;;;;;;8.27;6.57;;;;;;;;;;4970429;28;20682;-86
2022/04/22 13:38:57;;;;;;;7.50;6.63;;;;;;;;;;4959189;29;20714;-86
2022/04/22 13:42:02;;;;;;;7.00;6.40;;;;;;;;;;4960440;28;20199;-86
2022/04/22 13:55:14;;;;;;;5.90;5.30;;;;;;;;;;4941210;29;20184;-86
2022/04/22 13:58:19;;;;;;;6.80;6.10;;;;;;;;;;4951489;29;20219;-86
2022/04/22 14:01:23;;;;;;;8.57;6.73;;;;;;;;;;4951638;29;20180;-86
2022/04/22 14:04:27;;;;;;;5.97;5.33;;;;;;;;;;4952683;29;20521;-86
2022/04/22 14:07:31;;;;;;;5.90;5.20;;;;;;;;;;4951705;29;20224;-86
2022/04/22 14:10:35;;;;;;;6.13;5.53;;;;;;;;;;4951806;29;20184;-86
2022/04/22 14:13:39;;;;;;;6.90;5.40;;;;;;;;;;4950414;29;20199;-86
2022/04/22 14:16:43;;;;;;;5.93;5.20;;;;;;;;;;4939327;29;20224;-85
2022/04/22 14:19:47;;;;;;;6.97;6.27;;;;;;;;;;4951455;29;20184;-86
2022/04/22 14:22:52;;;;;;;6.90;6.20;;;;;;;;;;4951838;29;20188;-86
2022/04/22 14:25:57;;;;;;;7.57;6.17;;;;;;;;;;4938745;29;20181;-86
2022/04/22 14:29:02;;;;;;;7.87;6.40;;;;;;;;;;4939069;29;20200;-86
2022/04/22 14:32:07;;;;;;;6.93;5.60;;;;;;;;;;4950271;29;20184;-86
2022/04/22 14:35:11;;;;;;;7.67;6.37;;;;;;;;;;4949866;29;20200;-86
2022/04/22 14:38:15;;;;;;;8.37;6.23;;;;;;;;;;4949209;29;20216;-86
2022/04/22 14:41:19;;;;;;;6.93;5.47;;;;;;;;;;4949953;29;20184;-86
2022/04/22 14:44:24;;;;;;;6.90;6.20;;;;;;;;;;4950729;29;20180;-85
2022/04/22 14:47:27;;;;;;;8.43;6.30;;;;;;;;;;4951165;29;20695;-86
2022/04/22 14:50:32;;;;;;;7.73;6.37;;;;;;;;;;4939710;29;20180;-86
2022/04/22 14:53:36;;;;;;;7.00;6.20;;;;;;;;;;4950640;29;20188;-86
2022/04/22 14:56:40;;;;;;;9.60;7.83;;;;;;;;;;4939621;29;20212;-86
2022/04/22 14:59:45;;;;;;;8.83;6.90;;;;;;;;;;4951071;29;20184;-86
2022/04/22 15:02:48;;;;;;;6.57;5.90;;;;;;;;;;4950780;29;20630;-86
2022/04/22 15:05:53;;;;;;;9.17;6.73;;;;;;;;;;4954249;29;20185;-87
2022/04/22 15:08:57;;;;;;;7.80;7.00;;;;;;;;;;4939687;29;20224;-86
2022/04/22 15:12:02;;;;;;;15.93;7.33;;;;;;;;;;4950210;29;20188;-86
2022/04/22 15:15:06;;;;;;;7.50;6.03;;;;;;;;;;4938410;29;20520;-86
2022/04/22 15:24:55;;;;;;;6.37;5.27;;;;;;;;;;4937961;29;20188;-86
2022/04/22 15:28:00;;;;;;;7.83;6.17;;;;;;;;;;5004723;23;20245;-85
2022/04/22 15:31:06;;;;;;;5.87;4.83;;;;;;;;;;5012802;28;20178;-85
2022/04/22 15:34:10;;;;;;;6.13;5.53;;;;;;;;;;4990325;28;20201;-85
2022/04/22 15:37:14;;;;;;;7.43;5.23;;;;;;;;;;4990306;28;20225;-85
2022/04/22 15:40:19;;;;;;;5.50;5.00;;;;;;;;;;5001467;28;20182;-85
2022/04/22 15:43:23;;;;;;;6.80;4.60;;;;;;;;;;4990393;28;20182;-85
2022/04/22 15:46:28;;;;;;;5.53;4.03;;;;;;;;;;5012958;28;20174;-85
2022/04/22 15:49:33;;;;;;;6.27;4.63;;;;;;;;;;5001600;28;20178;-86
2022/04/22 15:52:37;;;;;;;5.57;4.90;;;;;;;;;;5015496;28;20181;-85
2022/04/22 15:55:41;;;;;;;6.97;5.13;;;;;;;;;;5005354;28;20181;-86
2022/04/22 15:58:46;;;;;;;12.93;6.23;;;;;;;;;;5016043;28;20218;-85
2022/04/22 16:01:51;;;;;;;7.20;5.33;;;;;;;;;;4993784;28;20182;-85
2022/04/22 16:04:55;;;;;;;6.20;5.53;;;;;;;;;;5016070;28;20178;-84
2022/04/22 16:08:00;;;;;;;5.77;5.10;;;;;;;;;;5015945;28;20213;-85
2022/04/22 16:17:50;;;;;;;6.20;5.50;;;;;;;;;;5015886;28;20237;-84
2022/04/22 16:20:54;;;;;;;6.50;5.33;;;;;;;;;;5027068;28;20181;-85
2022/04/22 16:23:59;;;;;;;6.93;6.23;;;;;;;;;;5004864;28;20652;-85
2022/04/22 16:27:04;;;;;;;8.17;5.63;;;;;;;;;;5015891;28;20204;-84
2022/04/22 16:30:10;;;;;;;6.67;5.67;;;;;;;;;;5015693;28;20185;-84
2022/04/22 16:33:14;;;;;;;12.17;5.63;;;;;;;;;;5004175;28;20178;-84
2022/04/22 16:36:19;;;;;;;6.40;5.50;;;;;;;;;;5004401;28;20177;-84
2022/04/22 16:39:25;;;;;;;7.17;5.13;;;;;;;;;;5003855;28;20197;-84
2022/04/22 16:42:29;;;;;;;7.20;5.80;;;;;;;;;;5015319;28;20550;-85
2022/04/22 16:45:33;;;;;;;9.70;5.70;;;;;;;;;;5004063;28;20181;-84
2022/04/22 16:48:38;;;;;;;6.03;5.43;;;;;;;;;;5003487;28;20209;-84
2022/04/22 16:51:43;;;;;;;6.53;5.03;;;;;;;;;;5003924;28;20177;-84
2022/04/22 16:54:47;;;;;;;5.97;5.37;;;;;;;;;;5003856;28;20181;-84
2022/04/22 16:57:52;;;;;;;17.10;5.50;;;;;;;;;;5014969;28;20229;-84
2022/04/22 17:00:56;;;;;;;7.73;5.77;;;;;;;;;;5003565;28;20181;-86
2022/04/22 17:04:01;;;;;;;6.43;5.50;;;;;;;;;;4992273;28;20514;-84
2022/04/22 17:07:05;;;;;;;8.63;6.97;;;;;;;;;;5003483;28;20177;-85
2022/04/22 17:10:09;;;;;;;8.20;5.90;;;;;;;;;;5015652;28;20185;-84
2022/04/22 17:13:13;;;;;;;7.10;5.07;;;;;;;;;;5003565;28;20181;-83
2022/04/22 17:23:03;;;;;;;4.93;2.40;;;;;;;;;;5015193;28;20628;-83
2022/04/22 17:26:14;;;;;;;3.27;2.33;;;;;;;;;;5003928;28;20201;-86
2022/04/22 17:29:20;;;;;;;2.60;2.20;;;;;;;;;;5015775;28;20220;-84
2022/04/22 17:32:24;;;;;;;3.00;2.47;;;;;;;;;;4993273;28;20178;-85
2022/04/22 17:35:28;;;;;;;3.67;2.30;;;;;;;;;;5015211;28;20509;-84
2022/04/22 17:38:36;;;;;;;2.57;2.10;;;;;;;;;;5004571;28;20224;-84
2022/04/22 17:41:40;;;;;;;5.07;2.40;;;;;;;;;;5003997;28;20178;-85
2022/04/22 17:44:45;;;;;;;2.53;2.33;;;;;;;;;;5016637;28;20189;-86
2022/04/22 17:47:49;;;;;;;6.87;2.23;;;;;;;;;;5015632;28;20213;-84
2022/04/22 17:50:54;;;;;;;2.30;2.10;;;;;;;;;;5004924;28;20197;-85
2022/04/22 17:53:58;;;;;;;3.57;2.40;;;;;;;;;;5005046;28;20510;-86
2022/04/22 17:57:06;;;;;;;4.40;2.50;;;;;;;;;;4993320;28;20209;-84
2022/04/22 18:00:11;;;;;;;4.53;2.53;;;;;;;;;;5003815;28;20182;-85
2022/04/22 18:03:15;;;;;;;6.53;2.63;;;;;;;;;;5019712;28;20529;-83
2022/04/22 18:06:19;;;;;;;4.63;3.00;;;;;;;;;;4992120;28;20197;-85
2022/04/22 18:09:23;;;;;;;4.33;2.83;;;;;;;;;;5014800;28;20177;-85
2022/04/22 18:12:28;;;;;;;5.30;3.03;;;;;;;;;;5014141;28;20190;-85
2022/04/22 18:18:54;;;;;;;6.70;3.23;;;;;;;;;;5013853;28;20233;-84
2022/04/22 18:21:59;;;;;;;6.20;3.10;;;;;;;;;;5014777;28;20177;-84
2022/04/22 18:25:03;;;;;;;3.40;3.10;;;;;;;;;;5015228;28;20177;-85
2022/04/22 18:28:08;;;;;;;4.33;2.83;;;;;;;;;;5002839;28;20225;-84
2022/04/22 18:31:12;;;;;;;5.93;3.30;;;;;;;;;;5002971;28;20181;-86
2022/04/22 18:34:16;;;;;;;5.00;3.17;;;;;;;;;;4991948;28;20173;-86
2022/04/22 18:37:23;;;;;;;5.30;3.10;;;;;;;;;;5014091;28;20711;-85
2022/04/22 18:40:29;;;;;;;6.97;4.80;;;;;;;;;;5002571;28;20181;-85
2022/04/22 18:43:34;;;;;;;6.67;4.23;;;;;;;;;;5003034;28;20181;-86
2022/04/22 18:46:38;;;;;;;4.07;3.10;;;;;;;;;;5003071;28;20181;-86
2022/04/22 18:49:42;;;;;;;4.53;3.60;;;;;;;;;;5003063;28;20624;-85
2022/04/22 18:52:46;;;;;;;3.20;2.90;;;;;;;;;;5002890;28;20185;-87
2022/04/22 18:55:51;;;;;;;4.00;3.47;;;;;;;;;;4991751;28;20197;-86
2022/04/22 18:58:55;;;;;;;4.57;3.63;;;;;;;;;;5003562;28;20232;-87
2022/04/22 19:01:59;;;;;;;3.63;3.33;;;;;;;;;;5002721;28;20181;-85
2022/04/22 19:05:03;;;;;;;3.90;3.43;;;;;;;;;;5002414;28;20205;-85
2022/04/22 19:08:12;;;;;;;3.53;3.20;;;;;;;;;;5002192;28;20213;-85
2022/04/22 19:11:16;;;;;;;4.37;3.83;;;;;;;;;;5002706;28;20178;-84
2022/04/22 19:14:20;;;;;;;3.30;3.00;;;;;;;;;;5002446;28;20182;-85
2022/04/22 19:17:24;;;;;;;3.10;2.80;;;;;;;;;;5002640;28;20229;-84
2022/04/22 19:20:29;;;;;;;3.63;3.27;;;;;;;;;;5002625;28;20522;-85
2022/04/22 19:23:36;;;;;;;5.27;3.50;;;;;;;;;;5013721;28;20197;-86
2022/04/22 19:26:40;;;;;;;3.90;3.47;;;;;;;;;;5003750;28;20197;-84
2022/04/22 19:29:44;;;;;;;3.70;3.30;;;;;;;;;;5005960;28;20174;-84
2022/04/22 19:32:49;;;;;;;4.30;3.80;;;;;;;;;;5017287;28;20177;-85
2022/04/22 19:35:53;;;;;;;4.07;3.67;;;;;;;;;;5006200;28;20190;-85
2022/04/22 19:42:20;;;;;;;4.40;4.00;;;;;;;;;;5028827;28;20518;-85
2022/04/22 19:45:24;;;;;;;3.87;3.57;;;;;;;;;;5017637;28;20181;-84
2022/04/22 19:48:30;;;;;;;4.60;4.20;;;;;;;;;;5016920;28;20217;-84
2022/04/22 19:51:33;;;;;;;4.97;3.93;;;;;;;;;;5005326;28;20177;-84
2022/04/22 19:54:38;;;;;;;5.07;4.23;;;;;;;;;;5005599;28;20193;-84
2022/04/22 19:57:43;;;;;;;4.67;4.17;;;;;;;;;;5016639;28;20229;-84
2022/04/22 20:00:54;;;;;;;5.23;4.50;;;;;;;;;;5016924;28;20182;-84
2022/04/22 20:04:01;;;;;;;5.13;4.40;;;;;;;;;;5016476;28;20193;-85
2022/04/22 20:07:06;;;;;;;5.77;5.17;;;;;;;;;;4994318;28;20185;-84
2022/04/22 20:10:11;;;;;;;5.83;5.23;;;;;;;;;;5005236;28;20182;-84